sensor_id;sensor_type;location;lat;lon;timestamp;P1;P2;P0
71794;PMS7003;59641;45.188;5.712;2022-11-21T00:02:24;10.50;10.25;6.00
71794;PMS7003;59641;45.188;5.712;2022-11-21T00:04:49;8.25;7.75;7.00
71794;PMS7003;59641;45.188;5.712;2022-11-21T00:07:15;10.00;9.00;7.00
71794;PMS7003;59641;45.188;5.712;2022-11-21T00:09:40;12.00;10.25;8.00
71794;PMS7003;59641;45.188;5.712;2022-11-21T00:12:06;14.75;12.75;8.25
71794;PMS7003;59641;45.188;5.712;2022-11-21T00:14:32;10.50;10.25;6.75
71794;PMS7003;59641;45.188;5.712;2022-11-21T00:16:58;12.00;10.50;7.75
71794;PMS7003;59641;45.188;5.712;2022-11-21T00:19:23;15.50;13.00;9.00
71794;PMS7003;59641;45.188;5.712;2022-11-21T00:21:49;18.75;17.75;10.75
71794;PMS7003;59641;45.188;5.712;2022-11-21T00:24:15;17.25;14.75;10.50
71794;PMS7003;59641;45.188;5.712;2022-11-21T00:26:41;14.75;13.50;10.50
71794;PMS7003;59641;45.188;5.712;2022-11-21T00:29:06;14.00;14.00;9.00
71794;PMS7003;59641;45.188;5.712;2022-11-21T00:31:32;14.50;13.50;8.50
71794;PMS7003;59641;45.188;5.712;2022-11-21T00:33:57;14.00;13.00;8.75
71794;PMS7003;59641;45.188;5.712;2022-11-21T00:36:23;19.75;16.00;11.75
71794;PMS7003;59641;45.188;5.712;2022-11-21T00:38:48;15.75;13.25;10.00
71794;PMS7003;59641;45.188;5.712;2022-11-21T00:41:14;21.75;20.00;14.75
71794;PMS7003;59641;45.188;5.712;2022-11-21T00:43:39;19.50;17.75;11.25
71794;PMS7003;59641;45.188;5.712;2022-11-21T00:46:04;23.50;19.25;16.00
71794;PMS7003;59641;45.188;5.712;2022-11-21T00:48:30;23.25;20.50;14.25
71794;PMS7003;59641;45.188;5.712;2022-11-21T00:50:56;19.50;19.50;14.50
71794;PMS7003;59641;45.188;5.712;2022-11-21T00:53:24;24.67;19.00;12.00
71794;PMS7003;59641;45.188;5.712;2022-11-21T00:55:50;23.50;21.75;16.75
71794;PMS7003;59641;45.188;5.712;2022-11-21T00:58:15;23.00;19.00;13.50
71794;PMS7003;59641;45.188;5.712;2022-11-21T01:00:40;22.00;20.25;14.00
71794;PMS7003;59641;45.188;5.712;2022-11-21T01:03:06;27.75;25.50;17.50
71794;PMS7003;59641;45.188;5.712;2022-11-21T01:05:31;22.75;22.25;16.00
71794;PMS7003;59641;45.188;5.712;2022-11-21T01:07:57;23.00;19.00;15.00
71794;PMS7003;59641;45.188;5.712;2022-11-21T01:10:23;23.25;22.50;14.00
71794;PMS7003;59641;45.188;5.712;2022-11-21T01:12:48;25.00;22.50;15.00
71794;PMS7003;59641;45.188;5.712;2022-11-21T01:15:14;24.25;20.50;14.75
71794;PMS7003;59641;45.188;5.712;2022-11-21T01:17:39;20.75;19.75;16.00
71794;PMS7003;59641;45.188;5.712;2022-11-21T01:20:05;27.75;23.25;15.00
71794;PMS7003;59641;45.188;5.712;2022-11-21T01:22:31;20.00;19.25;14.00
71794;PMS7003;59641;45.188;5.712;2022-11-21T01:24:57;22.50;19.00;15.50
71794;PMS7003;59641;45.188;5.712;2022-11-21T01:27:22;21.50;20.00;15.25
71794;PMS7003;59641;45.188;5.712;2022-11-21T01:29:48;24.00;23.00;16.00
71794;PMS7003;59641;45.188;5.712;2022-11-21T01:32:13;26.25;24.25;16.75
71794;PMS7003;59641;45.188;5.712;2022-11-21T01:34:38;22.50;22.00;15.25
71794;PMS7003;59641;45.188;5.712;2022-11-21T01:37:04;22.75;19.75;15.00
71794;PMS7003;59641;45.188;5.712;2022-11-21T01:39:29;22.25;17.75;14.25
71794;PMS7003;59641;45.188;5.712;2022-11-21T01:41:55;18.50;17.25;13.50
71794;PMS7003;59641;45.188;5.712;2022-11-21T01:44:44;17.25;16.75;12.00
71794;PMS7003;59641;45.188;5.712;2022-11-21T01:47:12;23.25;21.00;14.00
71794;PMS7003;59641;45.188;5.712;2022-11-21T01:49:38;17.75;17.50;12.75
71794;PMS7003;59641;45.188;5.712;2022-11-21T01:54:41;18.25;16.50;12.75
71794;PMS7003;59641;45.188;5.712;2022-11-21T02:00:09;17.50;17.50;13.00
71794;PMS7003;59641;45.188;5.712;2022-11-21T02:02:37;14.00;14.00;7.25
71794;PMS7003;59641;45.188;5.712;2022-11-21T02:05:07;22.00;18.25;13.75
71794;PMS7003;59641;45.188;5.712;2022-11-21T02:07:38;17.25;17.00;13.50
71794;PMS7003;59641;45.188;5.712;2022-11-21T02:10:07;16.75;15.00;11.75
71794;PMS7003;59641;45.188;5.712;2022-11-21T02:15:19;15.25;14.00;9.25
71794;PMS7003;59641;45.188;5.712;2022-11-21T02:17:47;20.50;15.00;11.50
71794;PMS7003;59641;45.188;5.712;2022-11-21T02:20:16;19.00;18.00;12.50
71794;PMS7003;59641;45.188;5.712;2022-11-21T02:25:25;24.25;23.25;16.00
71794;PMS7003;59641;45.188;5.712;2022-11-21T02:27:57;31.50;23.00;13.00
71794;PMS7003;59641;45.188;5.712;2022-11-21T02:30:26;25.75;23.75;16.00
71794;PMS7003;59641;45.188;5.712;2022-11-21T02:32:53;22.25;21.75;13.00
71794;PMS7003;59641;45.188;5.712;2022-11-21T02:35:19;22.75;18.75;12.00
71794;PMS7003;59641;45.188;5.712;2022-11-21T02:37:46;30.25;24.50;16.00
71794;PMS7003;59641;45.188;5.712;2022-11-21T02:40:20;27.50;27.50;15.25
71794;PMS7003;59641;45.188;5.712;2022-11-21T02:48:09;26.25;23.50;16.25
71794;PMS7003;59641;45.188;5.712;2022-11-21T02:50:35;23.50;21.50;15.00
71794;PMS7003;59641;45.188;5.712;2022-11-21T02:53:06;27.50;22.50;15.25
71794;PMS7003;59641;45.188;5.712;2022-11-21T02:55:33;19.50;17.75;14.25
71794;PMS7003;59641;45.188;5.712;2022-11-21T02:57:59;24.00;22.25;15.00
71794;PMS7003;59641;45.188;5.712;2022-11-21T03:00:24;30.25;24.00;14.00
71794;PMS7003;59641;45.188;5.712;2022-11-21T03:02:50;28.00;23.00;15.00
71794;PMS7003;59641;45.188;5.712;2022-11-21T03:05:17;21.67;21.67;15.33
71794;PMS7003;59641;45.188;5.712;2022-11-21T03:07:43;33.00;25.67;17.00
71794;PMS7003;59641;45.188;5.712;2022-11-21T03:10:09;29.50;23.00;15.00
71794;PMS7003;59641;45.188;5.712;2022-11-21T03:12:35;23.25;18.75;13.25
71794;PMS7003;59641;45.188;5.712;2022-11-21T03:15:05;23.67;21.67;15.33
71794;PMS7003;59641;45.188;5.712;2022-11-21T03:17:31;23.75;21.00;12.50
71794;PMS7003;59641;45.188;5.712;2022-11-21T03:19:57;22.75;17.50;14.00
71794;PMS7003;59641;45.188;5.712;2022-11-21T03:22:23;20.50;16.00;13.25
71794;PMS7003;59641;45.188;5.712;2022-11-21T03:24:48;19.00;15.75;12.00
71794;PMS7003;59641;45.188;5.712;2022-11-21T03:27:14;22.50;19.50;12.25
71794;PMS7003;59641;45.188;5.712;2022-11-21T03:29:39;18.75;15.25;12.00
71794;PMS7003;59641;45.188;5.712;2022-11-21T03:32:04;29.25;22.00;13.00
71794;PMS7003;59641;45.188;5.712;2022-11-21T03:34:30;6.00;6.00;4.00
71794;PMS7003;59641;45.188;5.712;2022-11-21T03:36:55;19.25;15.00;10.00
71794;PMS7003;59641;45.188;5.712;2022-11-21T03:39:21;15.00;12.25;7.25
71794;PMS7003;59641;45.188;5.712;2022-11-21T03:41:46;17.00;15.25;12.75
71794;PMS7003;59641;45.188;5.712;2022-11-21T03:44:12;15.50;14.00;10.75
71794;PMS7003;59641;45.188;5.712;2022-11-21T03:46:38;22.50;18.25;12.00
71794;PMS7003;59641;45.188;5.712;2022-11-21T03:49:05;16.75;14.75;10.50
71794;PMS7003;59641;45.188;5.712;2022-11-21T03:51:32;18.00;14.50;11.00
71794;PMS7003;59641;45.188;5.712;2022-11-21T03:53:57;14.50;13.75;9.25
71794;PMS7003;59641;45.188;5.712;2022-11-21T03:56:23;15.25;13.75;9.00
71794;PMS7003;59641;45.188;5.712;2022-11-21T03:58:49;13.00;12.50;8.50
71794;PMS7003;59641;45.188;5.712;2022-11-21T04:01:14;16.25;14.00;9.00
71794;PMS7003;59641;45.188;5.712;2022-11-21T04:03:43;14.50;14.00;11.00
71794;PMS7003;59641;45.188;5.712;2022-11-21T04:06:10;14.50;11.25;7.00
71794;PMS7003;59641;45.188;5.712;2022-11-21T04:08:37;15.75;15.00;12.00
71794;PMS7003;59641;45.188;5.712;2022-11-21T04:11:03;11.75;11.75;9.50
71794;PMS7003;59641;45.188;5.712;2022-11-21T04:13:29;14.50;13.00;8.75
71794;PMS7003;59641;45.188;5.712;2022-11-21T04:15:54;14.75;13.00;9.50
71794;PMS7003;59641;45.188;5.712;2022-11-21T04:18:20;18.00;15.00;11.75
71794;PMS7003;59641;45.188;5.712;2022-11-21T04:20:45;15.00;14.50;10.50
71794;PMS7003;59641;45.188;5.712;2022-11-21T04:23:11;12.25;12.25;8.50
71794;PMS7003;59641;45.188;5.712;2022-11-21T04:25:36;16.00;13.25;9.00
71794;PMS7003;59641;45.188;5.712;2022-11-21T04:28:02;12.75;11.75;9.50
71794;PMS7003;59641;45.188;5.712;2022-11-21T04:30:29;13.00;12.00;10.00
71794;PMS7003;59641;45.188;5.712;2022-11-21T04:32:56;14.00;13.75;10.25
71794;PMS7003;59641;45.188;5.712;2022-11-21T04:35:22;16.25;13.00;9.00
71794;PMS7003;59641;45.188;5.712;2022-11-21T04:37:48;13.00;12.20;10.00
71794;PMS7003;59641;45.188;5.712;2022-11-21T04:40:14;18.75;14.25;10.00
71794;PMS7003;59641;45.188;5.712;2022-11-21T04:42:40;18.50;14.00;10.25
71794;PMS7003;59641;45.188;5.712;2022-11-21T04:45:10;13.00;11.50;9.00
71794;PMS7003;59641;45.188;5.712;2022-11-21T04:47:39;13.75;13.75;8.75
71794;PMS7003;59641;45.188;5.712;2022-11-21T04:50:06;12.50;12.00;8.75
71794;PMS7003;59641;45.188;5.712;2022-11-21T04:52:33;16.75;15.25;10.75
71794;PMS7003;59641;45.188;5.712;2022-11-21T04:54:59;18.75;14.50;10.00
71794;PMS7003;59641;45.188;5.712;2022-11-21T04:57:28;12.75;12.25;9.75
71794;PMS7003;59641;45.188;5.712;2022-11-21T04:59:54;11.50;8.75;6.50
71794;PMS7003;59641;45.188;5.712;2022-11-21T05:02:20;17.50;13.75;7.00
71794;PMS7003;59641;45.188;5.712;2022-11-21T05:04:45;14.25;13.75;10.75
71794;PMS7003;59641;45.188;5.712;2022-11-21T05:07:11;14.50;13.75;10.25
71794;PMS7003;59641;45.188;5.712;2022-11-21T05:09:36;16.50;15.25;12.25
71794;PMS7003;59641;45.188;5.712;2022-11-21T05:12:02;22.50;21.50;13.25
71794;PMS7003;59641;45.188;5.712;2022-11-21T05:14:46;18.50;15.25;10.00
71794;PMS7003;59641;45.188;5.712;2022-11-21T05:17:12;18.25;13.50;10.00
71794;PMS7003;59641;45.188;5.712;2022-11-21T05:19:37;18.25;16.25;10.00
71794;PMS7003;59641;45.188;5.712;2022-11-21T05:22:03;16.00;14.00;11.00
71794;PMS7003;59641;45.188;5.712;2022-11-21T05:24:28;17.25;14.00;10.00
71794;PMS7003;59641;45.188;5.712;2022-11-21T05:26:53;13.00;13.00;11.00
71794;PMS7003;59641;45.188;5.712;2022-11-21T05:29:19;20.00;17.25;12.75
71794;PMS7003;59641;45.188;5.712;2022-11-21T05:31:45;20.25;14.50;10.25
71794;PMS7003;59641;45.188;5.712;2022-11-21T05:34:10;18.75;16.25;10.75
71794;PMS7003;59641;45.188;5.712;2022-11-21T05:36:36;7.75;5.00;3.00
71794;PMS7003;59641;45.188;5.712;2022-11-21T05:39:02;23.75;17.25;11.00
71794;PMS7003;59641;45.188;5.712;2022-11-21T05:41:27;15.75;15.50;10.25
71794;PMS7003;59641;45.188;5.712;2022-11-21T05:43:53;16.00;13.00;11.00
71794;PMS7003;59641;45.188;5.712;2022-11-21T05:46:19;18.00;15.25;10.50
71794;PMS7003;59641;45.188;5.712;2022-11-21T05:48:47;19.75;17.25;11.00
71794;PMS7003;59641;45.188;5.712;2022-11-21T05:51:14;23.00;14.50;10.50
71794;PMS7003;59641;45.188;5.712;2022-11-21T05:53:40;44.00;35.67;25.67
71794;PMS7003;59641;45.188;5.712;2022-11-21T05:56:07;19.50;18.25;14.00
71794;PMS7003;59641;45.188;5.712;2022-11-21T05:58:37;16.50;14.00;11.25
71794;PMS7003;59641;45.188;5.712;2022-11-21T06:01:03;17.75;14.75;11.00
71794;PMS7003;59641;45.188;5.712;2022-11-21T06:03:32;19.00;18.25;11.75
71794;PMS7003;59641;45.188;5.712;2022-11-21T06:08:36;20.25;16.75;11.25
71794;PMS7003;59641;45.188;5.712;2022-11-21T06:11:03;21.00;16.75;11.00
71794;PMS7003;59641;45.188;5.712;2022-11-21T06:13:30;13.75;13.50;9.50
71794;PMS7003;59641;45.188;5.712;2022-11-21T06:18:23;14.00;13.00;10.00
71794;PMS7003;59641;45.188;5.712;2022-11-21T06:20:48;17.25;12.75;10.00
71794;PMS7003;59641;45.188;5.712;2022-11-21T06:23:14;27.33;26.67;19.00
71794;PMS7003;59641;45.188;5.712;2022-11-21T06:25:40;20.25;17.25;12.00
71794;PMS7003;59641;45.188;5.712;2022-11-21T06:28:07;20.75;18.00;11.00
71794;PMS7003;59641;45.188;5.712;2022-11-21T06:30:32;15.50;15.25;10.25
71794;PMS7003;59641;45.188;5.712;2022-11-21T06:32:58;11.50;10.00;4.00
71794;PMS7003;59641;45.188;5.712;2022-11-21T06:35:24;17.00;14.75;10.50
71794;PMS7003;59641;45.188;5.712;2022-11-21T06:37:50;15.25;13.75;11.00
71794;PMS7003;59641;45.188;5.712;2022-11-21T06:40:15;19.75;19.50;12.75
71794;PMS7003;59641;45.188;5.712;2022-11-21T06:42:40;17.75;15.50;12.00
71794;PMS7003;59641;45.188;5.712;2022-11-21T06:45:06;18.50;15.50;11.00
71794;PMS7003;59641;45.188;5.712;2022-11-21T06:47:32;20.50;17.75;13.00
71794;PMS7003;59641;45.188;5.712;2022-11-21T06:49:58;19.50;17.00;12.00
71794;PMS7003;59641;45.188;5.712;2022-11-21T06:52:24;22.00;19.00;12.00
71794;PMS7003;59641;45.188;5.712;2022-11-21T06:54:50;13.75;13.75;9.50
71794;PMS7003;59641;45.188;5.712;2022-11-21T06:57:16;26.00;19.00;12.33
71794;PMS7003;59641;45.188;5.712;2022-11-21T06:59:41;19.25;18.25;13.00
71794;PMS7003;59641;45.188;5.712;2022-11-21T07:02:13;20.00;18.75;12.00
71794;PMS7003;59641;45.188;5.712;2022-11-21T07:04:39;22.25;20.25;12.00
71794;PMS7003;59641;45.188;5.712;2022-11-21T07:07:04;23.00;21.75;12.50
71794;PMS7003;59641;45.188;5.712;2022-11-21T07:09:30;17.75;17.00;11.00
71794;PMS7003;59641;45.188;5.712;2022-11-21T07:11:57;45.00;35.00;23.00
71794;PMS7003;59641;45.188;5.712;2022-11-21T07:14:43;21.25;17.25;14.00
71794;PMS7003;59641;45.188;5.712;2022-11-21T07:17:12;20.50;18.25;12.50
71794;PMS7003;59641;45.188;5.712;2022-11-21T07:19:38;21.50;18.75;13.00
71794;PMS7003;59641;45.188;5.712;2022-11-21T07:22:04;18.25;18.25;13.00
71794;PMS7003;59641;45.188;5.712;2022-11-21T07:24:30;21.50;20.75;13.00
71794;PMS7003;59641;45.188;5.712;2022-11-21T07:26:55;21.00;19.25;13.25
71794;PMS7003;59641;45.188;5.712;2022-11-21T07:29:21;24.50;20.00;12.50
71794;PMS7003;59641;45.188;5.712;2022-11-21T07:31:46;22.00;20.25;14.00
71794;PMS7003;59641;45.188;5.712;2022-11-21T07:34:12;31.50;25.25;15.25
71794;PMS7003;59641;45.188;5.712;2022-11-21T07:36:37;22.33;15.67;11.00
71794;PMS7003;59641;45.188;5.712;2022-11-21T07:39:03;20.33;19.00;12.33
71794;PMS7003;59641;45.188;5.712;2022-11-21T07:41:28;25.67;21.00;12.67
71794;PMS7003;59641;45.188;5.712;2022-11-21T07:43:54;26.33;22.00;14.00
71794;PMS7003;59641;45.188;5.712;2022-11-21T07:46:19;25.50;20.25;14.25
71794;PMS7003;59641;45.188;5.712;2022-11-21T07:48:44;20.75;20.75;13.25
71794;PMS7003;59641;45.188;5.712;2022-11-21T07:51:10;21.75;17.50;13.25
71794;PMS7003;59641;45.188;5.712;2022-11-21T07:53:35;26.00;22.50;16.00
71794;PMS7003;59641;45.188;5.712;2022-11-21T07:56:01;22.00;21.50;14.25
71794;PMS7003;59641;45.188;5.712;2022-11-21T07:58:27;19.25;14.00;11.00
71794;PMS7003;59641;45.188;5.712;2022-11-21T08:00:52;19.00;14.00;11.00
71794;PMS7003;59641;45.188;5.712;2022-11-21T08:03:18;16.25;15.25;11.00
71794;PMS7003;59641;45.188;5.712;2022-11-21T08:05:44;14.00;14.00;11.00
71794;PMS7003;59641;45.188;5.712;2022-11-21T08:08:10;12.75;12.75;10.00
71794;PMS7003;59641;45.188;5.712;2022-11-21T08:10:41;14.00;12.25;9.00
71794;PMS7003;59641;45.188;5.712;2022-11-21T08:13:07;17.75;15.25;10.75
71794;PMS7003;59641;45.188;5.712;2022-11-21T08:15:34;18.50;17.00;11.75
71794;PMS7003;59641;45.188;5.712;2022-11-21T08:18:09;15.75;15.25;11.00
71794;PMS7003;59641;45.188;5.712;2022-11-21T08:20:36;19.33;18.67;13.67
71794;PMS7003;59641;45.188;5.712;2022-11-21T08:23:02;18.00;17.50;12.50
71794;PMS7003;59641;45.188;5.712;2022-11-21T08:25:28;25.25;21.00;12.00
71794;PMS7003;59641;45.188;5.712;2022-11-21T08:27:56;16.75;14.50;10.25
71794;PMS7003;59641;45.188;5.712;2022-11-21T08:30:22;20.00;19.25;12.75
71794;PMS7003;59641;45.188;5.712;2022-11-21T08:32:48;20.00;18.00;13.00
71794;PMS7003;59641;45.188;5.712;2022-11-21T08:35:14;20.75;17.50;11.00
71794;PMS7003;59641;45.188;5.712;2022-11-21T08:37:39;15.25;14.25;11.00
71794;PMS7003;59641;45.188;5.712;2022-11-21T08:40:05;16.75;15.25;12.00
71794;PMS7003;59641;45.188;5.712;2022-11-21T08:42:31;16.00;16.00;12.00
71794;PMS7003;59641;45.188;5.712;2022-11-21T08:44:56;16.75;13.50;12.00
71794;PMS7003;59641;45.188;5.712;2022-11-21T08:47:22;13.50;13.00;10.00
71794;PMS7003;59641;45.188;5.712;2022-11-21T08:49:47;11.25;9.25;6.50
71794;PMS7003;59641;45.188;5.712;2022-11-21T08:52:13;16.25;13.25;11.00
71794;PMS7003;59641;45.188;5.712;2022-11-21T08:54:41;11.00;9.75;7.25
71794;PMS7003;59641;45.188;5.712;2022-11-21T08:57:08;12.25;11.50;8.50
71794;PMS7003;59641;45.188;5.712;2022-11-21T08:59:34;19.50;16.00;11.00
71794;PMS7003;59641;45.188;5.712;2022-11-21T09:02:00;14.00;14.00;10.50
71794;PMS7003;59641;45.188;5.712;2022-11-21T09:04:26;16.00;15.25;11.00
71794;PMS7003;59641;45.188;5.712;2022-11-21T09:06:51;18.00;14.75;12.00
71794;PMS7003;59641;45.188;5.712;2022-11-21T09:09:17;13.50;13.50;11.75
71794;PMS7003;59641;45.188;5.712;2022-11-21T09:11:42;15.75;15.25;10.25
71794;PMS7003;59641;45.188;5.712;2022-11-21T09:14:08;13.25;12.25;9.50
71794;PMS7003;59641;45.188;5.712;2022-11-21T09:16:52;16.25;16.00;11.25
71794;PMS7003;59641;45.188;5.712;2022-11-21T09:19:35;13.00;11.00;8.50
71794;PMS7003;59641;45.188;5.712;2022-11-21T09:22:01;14.75;13.25;9.00
71794;PMS7003;59641;45.188;5.712;2022-11-21T09:24:26;12.25;11.50;8.75
71794;PMS7003;59641;45.188;5.712;2022-11-21T09:26:52;14.00;13.00;10.25
71794;PMS7003;59641;45.188;5.712;2022-11-21T09:29:17;16.00;13.25;10.75
71794;PMS7003;59641;45.188;5.712;2022-11-21T09:31:43;11.25;11.25;8.25
71794;PMS7003;59641;45.188;5.712;2022-11-21T09:34:08;12.75;12.25;10.00
71794;PMS7003;59641;45.188;5.712;2022-11-21T09:36:34;12.25;10.25;7.75
71794;PMS7003;59641;45.188;5.712;2022-11-21T09:39:00;18.75;18.25;15.00
71794;PMS7003;59641;45.188;5.712;2022-11-21T09:50:03;18.75;18.00;13.50
71794;PMS7003;59641;45.188;5.712;2022-11-21T09:55:12;21.75;20.25;14.25
71794;PMS7003;59641;45.188;5.712;2022-11-21T09:57:59;17.50;15.50;10.50
71794;PMS7003;59641;45.188;5.712;2022-11-21T10:00:28;18.75;17.25;12.00
71794;PMS7003;59641;45.188;5.712;2022-11-21T10:02:54;15.25;13.25;9.00
71794;PMS7003;59641;45.188;5.712;2022-11-21T10:10:54;18.00;15.75;12.00
71794;PMS7003;59641;45.188;5.712;2022-11-21T10:13:31;14.00;12.50;9.75
71794;PMS7003;59641;45.188;5.712;2022-11-21T10:16:11;17.25;15.75;12.00
71794;PMS7003;59641;45.188;5.712;2022-11-21T10:27:03;17.00;15.50;11.00
71794;PMS7003;59641;45.188;5.712;2022-11-21T10:29:56;12.75;11.00;9.00
71794;PMS7003;59641;45.188;5.712;2022-11-21T10:32:27;16.00;9.25;7.00
71794;PMS7003;59641;45.188;5.712;2022-11-21T10:34:57;16.25;14.50;9.75
71794;PMS7003;59641;45.188;5.712;2022-11-21T10:39:51;10.50;8.00;5.75
71794;PMS7003;59641;45.188;5.712;2022-11-21T10:45:13;15.75;12.00;7.25
71794;PMS7003;59641;45.188;5.712;2022-11-21T10:47:43;11.25;11.25;8.00
71794;PMS7003;59641;45.188;5.712;2022-11-21T10:53:17;13.00;12.25;8.25
71794;PMS7003;59641;45.188;5.712;2022-11-21T10:56:04;12.25;12.25;10.25
71794;PMS7003;59641;45.188;5.712;2022-11-21T10:58:38;14.50;13.50;9.50
71794;PMS7003;59641;45.188;5.712;2022-11-21T11:01:22;9.50;8.25;7.00
71794;PMS7003;59641;45.188;5.712;2022-11-21T11:06:34;7.75;7.25;6.00
71794;PMS7003;59641;45.188;5.712;2022-11-21T11:09:00;17.75;14.25;11.00
71794;PMS7003;59641;45.188;5.712;2022-11-21T11:11:25;12.50;12.25;7.75
71794;PMS7003;59641;45.188;5.712;2022-11-21T11:14:01;17.75;12.00;9.50
71794;PMS7003;59641;45.188;5.712;2022-11-21T11:16:30;9.25;9.00;6.75
71794;PMS7003;59641;45.188;5.712;2022-11-21T11:19:00;10.75;10.75;7.25
71794;PMS7003;59641;45.188;5.712;2022-11-21T11:24:17;13.50;12.25;7.75
71794;PMS7003;59641;45.188;5.712;2022-11-21T11:34:39;11.75;11.50;10.00
71794;PMS7003;59641;45.188;5.712;2022-11-21T11:49:03;13.40;12.60;9.80
71794;PMS7003;59641;45.188;5.712;2022-11-21T11:51:36;17.00;13.50;10.25
71794;PMS7003;59641;45.188;5.712;2022-11-21T11:54:12;16.75;14.00;9.25
71794;PMS7003;59641;45.188;5.712;2022-11-21T11:56:42;8.75;7.75;5.00
71794;PMS7003;59641;45.188;5.712;2022-11-21T12:04:20;15.00;12.50;8.00
71794;PMS7003;59641;45.188;5.712;2022-11-21T12:12:01;9.00;8.40;6.00
71794;PMS7003;59641;45.188;5.712;2022-11-21T12:17:53;11.50;10.25;8.75
71794;PMS7003;59641;45.188;5.712;2022-11-21T12:20:41;9.60;9.60;7.00
71794;PMS7003;59641;45.188;5.712;2022-11-21T12:23:33;12.75;11.50;8.25
71794;PMS7003;59641;45.188;5.712;2022-11-21T12:35:03;16.50;12.25;10.50
71794;PMS7003;59641;45.188;5.712;2022-11-21T12:37:44;13.50;12.75;8.00
71794;PMS7003;59641;45.188;5.712;2022-11-21T12:45:51;13.50;10.75;8.25
71794;PMS7003;59641;45.188;5.712;2022-11-21T12:54:49;12.00;10.00;7.25
71794;PMS7003;59641;45.188;5.712;2022-11-21T13:06:14;14.25;10.50;7.50
71794;PMS7003;59641;45.188;5.712;2022-11-21T13:08:47;12.60;9.60;7.60
71794;PMS7003;59641;45.188;5.712;2022-11-21T13:14:25;13.50;11.00;7.75
71794;PMS7003;59641;45.188;5.712;2022-11-21T13:30:48;8.50;8.25;7.00
71794;PMS7003;59641;45.188;5.712;2022-11-21T13:47:09;8.50;6.50;5.25
71794;PMS7003;59641;45.188;5.712;2022-11-21T13:50:03;7.25;6.50;5.00
71794;PMS7003;59641;45.188;5.712;2022-11-21T13:52:53;6.00;6.00;5.00
71794;PMS7003;59641;45.188;5.712;2022-11-21T14:06:34;4.75;4.75;3.00
71794;PMS7003;59641;45.188;5.712;2022-11-21T14:09:25;17.75;14.75;9.00
71794;PMS7003;59641;45.188;5.712;2022-11-21T14:12:04;6.00;5.00;4.00
71794;PMS7003;59641;45.188;5.712;2022-11-21T14:14:53;6.75;6.75;4.25
71794;PMS7003;59641;45.188;5.712;2022-11-21T14:23:02;4.20;3.60;3.00
71794;PMS7003;59641;45.188;5.712;2022-11-21T14:28:00;1.00;1.00;0.00
71794;PMS7003;59641;45.188;5.712;2022-11-21T14:30:32;0.00;0.00;0.00
71794;PMS7003;59641;45.188;5.712;2022-11-21T14:35:57;0.00;0.00;0.00
71794;PMS7003;59641;45.188;5.712;2022-11-21T14:38:40;2.60;1.00;0.00
71794;PMS7003;59641;45.188;5.712;2022-11-21T14:43:47;2.80;0.00;0.00
71794;PMS7003;59641;45.188;5.712;2022-11-21T14:46:14;2.20;1.20;1.20
71794;PMS7003;59641;45.188;5.712;2022-11-21T14:48:40;0.00;0.00;0.00
71794;PMS7003;59641;45.188;5.712;2022-11-21T14:51:10;0.25;0.25;0.00
71794;PMS7003;59641;45.188;5.712;2022-11-21T14:53:40;1.00;1.00;0.00
71794;PMS7003;59641;45.188;5.712;2022-11-21T14:56:08;0.80;0.80;0.00
71794;PMS7003;59641;45.188;5.712;2022-11-21T14:58:43;1.00;1.00;0.00
71794;PMS7003;59641;45.188;5.712;2022-11-21T15:01:28;3.00;3.00;2.75
71794;PMS7003;59641;45.188;5.712;2022-11-21T15:03:55;1.00;0.00;0.00
71794;PMS7003;59641;45.188;5.712;2022-11-21T15:06:29;0.80;0.80;0.00
71794;PMS7003;59641;45.188;5.712;2022-11-21T15:09:03;0.20;0.20;0.20
71794;PMS7003;59641;45.188;5.712;2022-11-21T15:11:39;0.00;0.00;0.00
71794;PMS7003;59641;45.188;5.712;2022-11-21T15:14:20;1.00;1.00;1.00
71794;PMS7003;59641;45.188;5.712;2022-11-21T15:17:12;2.40;2.00;1.00
71794;PMS7003;59641;45.188;5.712;2022-11-21T15:19:41;25.00;24.00;15.33
71794;PMS7003;59641;45.188;5.712;2022-11-21T15:22:30;2.80;0.60;0.00
71794;PMS7003;59641;45.188;5.712;2022-11-21T15:25:12;11.75;8.50;6.75
71794;PMS7003;59641;45.188;5.712;2022-11-21T15:27:42;2.00;2.00;1.00
71794;PMS7003;59641;45.188;5.712;2022-11-21T15:38:26;38.00;31.33;19.67
71794;PMS7003;59641;45.188;5.712;2022-11-21T15:43:43;2.80;1.00;1.00
71794;PMS7003;59641;45.188;5.712;2022-11-21T15:49:03;1.40;1.40;0.60
71794;PMS7003;59641;45.188;5.712;2022-11-21T15:51:40;2.00;1.40;1.00
71794;PMS7003;59641;45.188;5.712;2022-11-21T15:54:11;2.40;2.40;2.00
71794;PMS7003;59641;45.188;5.712;2022-11-21T15:56:40;1.00;1.00;0.00
71794;PMS7003;59641;45.188;5.712;2022-11-21T15:59:07;3.50;3.25;2.00
71794;PMS7003;59641;45.188;5.712;2022-11-21T16:01:33;2.00;2.00;1.40
71794;PMS7003;59641;45.188;5.712;2022-11-21T16:04:03;1.60;1.60;1.00
71794;PMS7003;59641;45.188;5.712;2022-11-21T16:06:32;2.40;2.40;2.00
71794;PMS7003;59641;45.188;5.712;2022-11-21T16:08:59;0.00;0.00;0.00
71794;PMS7003;59641;45.188;5.712;2022-11-21T16:11:28;1.40;0.80;0.80
71794;PMS7003;59641;45.188;5.712;2022-11-21T16:13:59;2.00;1.00;1.00
71794;PMS7003;59641;45.188;5.712;2022-11-21T16:16:26;1.00;1.00;1.00
71794;PMS7003;59641;45.188;5.712;2022-11-21T16:18:57;11.60;5.00;3.80
71794;PMS7003;59641;45.188;5.712;2022-11-21T16:21:23;6.20;3.60;3.00
71794;PMS7003;59641;45.188;5.712;2022-11-21T16:23:49;3.00;2.60;1.00
71794;PMS7003;59641;45.188;5.712;2022-11-21T16:26:16;5.60;3.00;2.00
71794;PMS7003;59641;45.188;5.712;2022-11-21T16:28:41;0.50;0.50;0.00
71794;PMS7003;59641;45.188;5.712;2022-11-21T16:31:16;2.75;2.00;1.25
71794;PMS7003;59641;45.188;5.712;2022-11-21T16:33:43;2.40;1.20;1.00
71794;PMS7003;59641;45.188;5.712;2022-11-21T16:36:08;1.00;1.00;0.50
71794;PMS7003;59641;45.188;5.712;2022-11-21T16:38:33;0.00;0.00;0.00
71794;PMS7003;59641;45.188;5.712;2022-11-21T16:41:00;1.00;1.00;1.00
71794;PMS7003;59641;45.188;5.712;2022-11-21T16:43:28;2.00;2.00;1.00
71794;PMS7003;59641;45.188;5.712;2022-11-21T16:45:54;1.00;1.00;0.00
71794;PMS7003;59641;45.188;5.712;2022-11-21T16:48:29;1.80;1.80;0.60
71794;PMS7003;59641;45.188;5.712;2022-11-21T16:50:55;0.75;0.75;0.00
71794;PMS7003;59641;45.188;5.712;2022-11-21T16:53:26;1.00;0.00;0.00
71794;PMS7003;59641;45.188;5.712;2022-11-21T16:55:58;2.60;1.00;0.80
71794;PMS7003;59641;45.188;5.712;2022-11-21T16:58:24;0.00;0.00;0.00
71794;PMS7003;59641;45.188;5.712;2022-11-21T17:00:50;2.50;1.75;1.00
71794;PMS7003;59641;45.188;5.712;2022-11-21T17:03:15;1.00;1.00;1.00
71794;PMS7003;59641;45.188;5.712;2022-11-21T17:05:40;6.75;3.75;3.00
71794;PMS7003;59641;45.188;5.712;2022-11-21T17:08:06;2.00;1.00;1.00
71794;PMS7003;59641;45.188;5.712;2022-11-21T17:10:32;1.00;1.00;1.00
71794;PMS7003;59641;45.188;5.712;2022-11-21T17:12:57;1.50;1.50;1.50
71794;PMS7003;59641;45.188;5.712;2022-11-21T17:15:22;2.75;2.75;2.00
71794;PMS7003;59641;45.188;5.712;2022-11-21T17:17:48;0.00;0.00;0.00